Time;durP1;ratioP1;P1;durP2;ratioP2;P2;SDS_P1;SDS_P2;PMS_P1;PMS_P2;Temp;Humidity;BMP_temperature;BMP_pressure;BME280_temperature;BME280_humidity;BME280_pressure;Samples;Min_cycle;Max_cycle;Signal;HPM_P1;HPM_P2
2022/01/24 08:58:06;;;;;;;;;;;22.60;80.10;;;;;;5068388;28;19927;-79
2022/01/24 09:00:33;;;;;;;;;;;22.60;80.20;;;;;;5070342;28;19920;-83
2022/01/24 09:03:00;;;;;;;;;;;22.60;80.20;;;;;;5071903;28;20461;-81
2022/01/24 09:05:28;;;;;;;;;;;22.60;80.20;;;;;;5053038;28;20278;-80
2022/01/24 09:07:55;;;;;;;;;;;22.60;80.30;;;;;;5066717;28;19919;-82
2022/01/24 09:10:25;;;;;;;;;;;22.60;80.40;;;;;;5070025;28;19920;-78
2022/01/24 09:12:51;;;;;;;;;;;22.60;80.70;;;;;;5074619;28;19916;-80
2022/01/24 09:15:18;;;;;;;;;;;22.60;80.70;;;;;;5090025;28;19904;-72
2022/01/24 09:17:44;;;;;;;;;;;22.50;80.70;;;;;;5070673;28;19908;-73
2022/01/24 09:20:11;;;;;;;;;;;22.50;81.20;;;;;;5071203;28;20278;-72
2022/01/24 09:22:38;;;;;;;;;;;22.50;81.30;;;;;;5071799;28;19948;-72
2022/01/24 09:25:05;;;;;;;;;;;22.50;81.40;;;;;;5078825;28;19919;-72
2022/01/24 09:27:31;;;;;;;;;;;22.50;81.10;;;;;;5081100;28;19920;-74
2022/01/24 09:29:58;;;;;;;;;;;22.50;81.30;;;;;;5061199;28;19916;-72
2022/01/24 09:32:26;;;;;;;;;;;22.50;81.40;;;;;;5071915;28;19911;-72
2022/01/24 09:34:52;;;;;;;;;;;22.50;81.40;;;;;;5077374;28;19908;-72
2022/01/24 09:37:19;;;;;;;;;;;22.50;81.50;;;;;;5078725;28;19908;-74
2022/01/24 09:39:45;;;;;;;;;;;22.40;81.70;;;;;;5069617;28;19983;-72
2022/01/24 09:42:12;;;;;;;;;;;22.40;81.80;;;;;;5057654;28;19921;-74
2022/01/24 09:44:39;;;;;;;;;;;22.40;81.60;;;;;;5065903;28;19919;-73
2022/01/24 09:47:05;;;;;;;;;;;22.40;81.60;;;;;;5069640;28;19912;-74
2022/01/24 09:49:32;;;;;;;;;;;22.40;81.60;;;;;;5076317;28;19916;-74
2022/01/24 09:51:58;;;;;;;;;;;22.40;81.60;;;;;;5072973;28;20389;-76
2022/01/24 09:54:25;;;;;;;;;;;22.40;81.80;;;;;;5073169;28;20371;-75
2022/01/24 10:28:26;;;;;;;;;;;22.30;81.40;;;;;;5086917;28;19927;-73
2022/01/24 10:31:03;;;;;;;;;;;22.30;81.30;;;;;;5076970;28;19959;-72
2022/01/24 10:33:30;;;;;;;;;;;22.30;81.40;;;;;;5068259;28;19916;-73
2022/01/24 10:35:56;;;;;;;;;;;22.30;81.10;;;;;;5062694;28;20278;-71
2022/01/24 10:38:34;;;;;;;;;;;22.30;80.60;;;;;;5069047;28;19912;-71
2022/01/24 10:43:43;;;;;;;;;;;22.30;80.00;;;;;;5054657;28;19908;-72
2022/01/24 10:46:09;;;;;;;;;;;22.30;79.80;;;;;;5064360;28;19912;-72
2022/01/24 10:48:39;;;;;;;;;;;22.30;80.00;;;;;;5071262;28;19981;-71
2022/01/24 10:51:18;;;;;;;;;;;22.30;80.10;;;;;;5070667;28;20394;-72
2022/01/24 10:53:45;;;;;;;;;;;22.30;79.70;;;;;;5064301;28;19909;-73
2022/01/24 10:56:44;;;;;;;;;;;22.30;79.40;;;;;;5070197;28;19908;-73
2022/01/24 10:59:10;;;;;;;;;;;22.30;79.40;;;;;;5024366;28;19957;-75
2022/01/24 11:01:37;;;;;;;;;;;22.30;79.10;;;;;;5070464;28;19904;-73
2022/01/24 11:04:10;;;;;;;;;;;22.30;79.40;;;;;;5063637;28;20148;-73
2022/01/24 11:06:37;;;;;;;;;;;22.30;79.30;;;;;;5066068;28;19991;-73
2022/01/24 11:09:14;;;;;;;;;;;22.30;79.00;;;;;;5066132;28;20011;-72
2022/01/24 11:11:41;;;;;;;;;;;22.30;78.90;;;;;;5067253;28;19939;-73
2022/01/24 11:14:09;;;;;;;;;;;22.30;78.70;;;;;;5070486;28;20346;-73
2022/01/24 11:16:39;;;;;;;;;;;22.40;78.70;;;;;;5071576;28;19908;-72
2022/01/24 11:19:14;;;;;;;;;;;22.40;78.70;;;;;;5070709;28;19917;-72
2022/01/24 11:21:42;;;;;;;;;;;22.40;78.50;;;;;;5070295;28;19991;-73
2022/01/24 11:24:09;;;;;;;;;;;22.40;78.20;;;;;;5066671;28;19914;-72
2022/01/24 11:26:36;;;;;;;;;;;22.40;78.50;;;;;;5058612;28;19920;-72
2022/01/24 11:29:03;;;;;;;;;;;22.40;78.50;;;;;;5069837;28;19927;-73
2022/01/24 11:31:40;;;;;;;;;;;22.30;78.50;;;;;;5060841;28;19917;-72
2022/01/24 11:34:14;;;;;;;;;;;22.40;78.50;;;;;;5067763;28;20329;-72
2022/01/24 11:36:41;;;;;;;;;;;22.40;78.40;;;;;;5071207;28;19908;-72
2022/01/24 11:39:08;;;;;;;;;;;22.40;78.40;;;;;;5067544;28;20425;-71
2022/01/24 11:41:37;;;;;;;;;;;22.40;78.90;;;;;;5070440;28;19968;-72
2022/01/24 11:44:09;;;;;;;;;;;22.40;78.50;;;;;;5069856;28;20422;-73
2022/01/24 11:46:43;;;;;;;;;;;22.30;78.60;;;;;;5071780;28;19912;-73
2022/01/24 11:49:13;;;;;;;;;;;22.30;78.20;;;;;;5071993;28;19904;-72
2022/01/24 11:51:41;;;;;;;;;;;22.40;78.00;;;;;;5071569;28;20007;-73
2022/01/24 11:54:31;;;;;;;;;;;22.30;78.10;;;;;;5070759;28;19908;-72
2022/01/24 11:57:16;;;;;;;;;;;22.30;78.00;;;;;;5070933;28;19908;-72
2022/01/24 11:59:43;;;;;;;;;;;22.30;78.10;;;;;;5071586;28;20436;-72
2022/01/24 12:02:10;;;;;;;;;;;22.30;78.30;;;;;;5070247;28;19934;-72
2022/01/24 12:04:52;;;;;;;;;;;22.30;78.30;;;;;;5071282;28;20309;-72
2022/01/24 12:07:23;;;;;;;;;;;22.40;78.20;;;;;;5070557;28;20282;-72
2022/01/24 12:09:50;;;;;;;;;;;22.40;77.90;;;;;;5070402;28;20013;-73
2022/01/24 12:12:35;;;;;;;;;;;22.30;78.00;;;;;;5069196;28;19914;-71
2022/01/24 12:15:03;;;;;;;;;;;22.30;77.80;;;;;;5068342;28;19915;-72
2022/01/24 12:17:49;;;;;;;;;;;22.40;77.60;;;;;;5070889;28;19915;-72
2022/01/24 12:20:31;;;;;;;;;;;22.40;77.40;;;;;;5070198;28;19908;-72
2022/01/24 12:22:57;;;;;;;;;;;22.40;77.30;;;;;;5084067;28;19911;-73
2022/01/24 12:25:42;;;;;;;;;;;22.40;77.20;;;;;;5084395;28;20424;-71
2022/01/24 12:28:18;;;;;;;;;;;22.40;77.00;;;;;;5088784;28;19989;-72
2022/01/24 12:31:03;;;;;;;;;;;22.40;77.30;;;;;;5091289;28;19924;-72
2022/01/24 12:33:29;;;;;;;;;;;22.40;77.00;;;;;;5091090;28;20369;-72
2022/01/24 12:35:56;;;;;;;;;;;22.40;77.10;;;;;;5068753;28;19979;-72
2022/01/24 12:38:22;;;;;;;;;;;22.40;76.70;;;;;;5047434;28;20454;-72
2022/01/24 12:40:49;;;;;;;;;;;22.40;76.70;;;;;;5091377;28;19908;-72
2022/01/24 12:43:40;;;;;;;;;;;22.40;76.60;;;;;;5091000;28;20342;-72
2022/01/24 12:46:19;;;;;;;;;;;22.40;76.70;;;;;;5103106;28;19914;-72
2022/01/24 12:48:49;;;;;;;;;;;22.40;76.80;;;;;;5072812;28;19961;-70
2022/01/24 12:51:16;;;;;;;;;;;22.40;76.50;;;;;;5055022;28;19923;-72
2022/01/24 12:53:42;;;;;;;;;;;22.40;76.40;;;;;;5050542;28;19970;-72
2022/01/24 12:56:11;;;;;;;;;;;22.40;76.70;;;;;;5063443;28;20267;-72
2022/01/24 12:58:39;;;;;;;;;;;22.40;76.70;;;;;;5089728;28;19996;-72
2022/01/24 13:09:16;;;;;;;;;;;22.40;76.40;;;;;;5073327;28;19923;-73
2022/01/24 13:11:50;;;;;;;;;;;22.40;76.50;;;;;;5069591;28;19927;-72
2022/01/24 13:14:33;;;;;;;;;;;22.40;76.50;;;;;;5049113;28;19912;-76
2022/01/24 13:22:38;;;;;;;;;;;22.40;76.40;;;;;;5065772;28;20054;-75
2022/01/24 13:25:09;;;;;;;;;;;22.40;76.30;;;;;;5057091;28;20290;-76
2022/01/24 13:27:36;;;;;;;;;;;22.40;76.60;;;;;;5074328;28;19912;-76
2022/01/24 13:30:04;;;;;;;;;;;22.40;76.70;;;;;;5054633;28;19909;-76
2022/01/24 13:32:43;;;;;;;;;;;22.40;76.70;;;;;;5055164;28;20281;-76
2022/01/24 13:35:14;;;;;;;;;;;22.40;76.50;;;;;;5056465;28;20496;-76
2022/01/24 13:37:40;;;;;;;;;;;22.40;76.40;;;;;;5081754;28;19954;-76
2022/01/24 13:40:07;;;;;;;;;;;22.40;76.60;;;;;;5094220;28;19908;-76
2022/01/24 13:42:34;;;;;;;;;;;22.40;76.60;;;;;;5077607;28;20255;-76
2022/01/24 13:45:01;;;;;;;;;;;22.40;76.60;;;;;;5056263;28;20600;-76
2022/01/24 13:47:28;;;;;;;;;;;22.30;76.60;;;;;;5084289;28;20038;-76
2022/01/24 13:49:54;;;;;;;;;;;22.40;76.70;;;;;;5080405;28;19965;-76
2022/01/24 13:52:22;;;;;;;;;;;22.40;76.60;;;;;;5081942;28;19912;-76
2022/01/24 13:54:49;;;;;;;;;;;22.40;76.70;;;;;;5053316;28;19920;-76
2022/01/24 13:57:19;;;;;;;;;;;22.40;76.80;;;;;;5072605;28;19924;-76
2022/01/24 13:59:45;;;;;;;;;;;22.40;76.50;;;;;;5069742;28;19931;-76
2022/01/24 14:02:14;;;;;;;;;;;22.40;76.60;;;;;;5077592;28;19914;-76
2022/01/24 14:04:52;;;;;;;;;;;22.30;76.60;;;;;;5073327;28;19908;-76
2022/01/24 14:07:23;;;;;;;;;;;22.30;76.30;;;;;;5093380;28;19916;-76
2022/01/24 14:09:52;;;;;;;;;;;22.30;76.50;;;;;;5065442;28;19913;-77
2022/01/24 14:12:19;;;;;;;;;;;22.30;76.70;;;;;;5056677;28;20281;-76
2022/01/24 14:14:50;;;;;;;;;;;22.30;76.50;;;;;;5089405;28;19908;-76
2022/01/24 14:19:44;;;;;;;;;;;22.30;76.60;;;;;;5093761;28;20318;-76
2022/01/24 14:22:11;;;;;;;;;;;22.30;76.70;;;;;;5080166;28;19914;-77
2022/01/24 14:24:44;;;;;;;;;;;22.30;76.80;;;;;;5071289;28;20442;-76
2022/01/24 14:27:10;;;;;;;;;;;22.30;76.80;;;;;;5073362;28;19998;-77
2022/01/24 14:29:38;;;;;;;;;;;22.30;76.80;;;;;;5038696;28;20255;-76
2022/01/24 14:32:11;;;;;;;;;;;22.30;76.80;;;;;;5072785;28;19990;-76
2022/01/24 14:34:38;;;;;;;;;;;22.30;76.90;;;;;;5073522;28;19932;-77
2022/01/24 14:37:05;;;;;;;;;;;22.30;76.60;;;;;;5040551;28;20121;-77
2022/01/24 14:39:32;;;;;;;;;;;22.30;76.80;;;;;;5064291;28;19958;-77
2022/01/24 14:42:07;;;;;;;;;;;22.30;77.00;;;;;;5071818;28;19909;-77
2022/01/24 14:44:57;;;;;;;;;;;22.30;76.80;;;;;;5071968;28;20267;-76
2022/01/24 14:47:24;;;;;;;;;;;22.30;76.80;;;;;;5079532;28;20007;-77
2022/01/24 14:49:51;;;;;;;;;;;22.30;76.60;;;;;;5071216;28;19912;-77
2022/01/24 14:52:20;;;;;;;;;;;22.30;76.30;;;;;;5076420;28;19920;-76
2022/01/24 14:54:46;;;;;;;;;;;22.30;76.40;;;;;;5071974;28;19995;-77
2022/01/24 14:57:15;;;;;;;;;;;22.30;76.60;;;;;;5072236;28;20007;-77
2022/01/24 14:59:44;;;;;;;;;;;22.30;76.60;;;;;;5068219;28;20006;-76
2022/01/24 15:02:11;;;;;;;;;;;22.30;76.80;;;;;;5072113;28;19940;-76
2022/01/24 18:32:36;;;;;;;;;;;21.80;80.50;;;;;;5073398;28;19923;-80
2022/01/24 18:35:03;;;;;;;;;;;21.80;80.80;;;;;;5054734;28;19920;-80
2022/01/24 18:37:30;;;;;;;;;;;21.80;81.00;;;;;;5056866;28;20434;-80
2022/01/24 18:39:57;;;;;;;;;;;21.80;81.30;;;;;;5053804;28;19969;-80
2022/01/24 18:42:28;;;;;;;;;;;21.80;81.30;;;;;;5069858;28;20013;-79
2022/01/24 18:44:56;;;;;;;;;;;21.80;81.50;;;;;;5070768;28;19944;-79
2022/01/24 18:47:22;;;;;;;;;;;21.80;81.60;;;;;;5057071;28;20362;-79
2022/01/24 18:49:49;;;;;;;;;;;21.80;81.80;;;;;;5071781;28;20279;-80
2022/01/24 18:52:15;;;;;;;;;;;21.80;82.00;;;;;;5071844;28;19908;-79
2022/01/24 18:54:42;;;;;;;;;;;21.80;81.90;;;;;;5071609;28;19908;-80
2022/01/24 18:57:09;;;;;;;;;;;21.70;82.00;;;;;;5071857;28;20388;-80
2022/01/24 18:59:36;;;;;;;;;;;21.80;82.10;;;;;;5055563;28;19908;-79
2022/01/24 19:02:03;;;;;;;;;;;21.70;82.00;;;;;;5071610;28;20592;-79
2022/01/24 19:04:30;;;;;;;;;;;21.70;82.00;;;;;;5081896;28;19916;-78
2022/01/24 19:06:56;;;;;;;;;;;21.70;82.10;;;;;;5072007;28;19916;-79
2022/01/24 19:09:24;;;;;;;;;;;21.70;82.20;;;;;;5071485;28;19961;-79
2022/01/24 19:11:50;;;;;;;;;;;21.70;82.20;;;;;;5073052;28;20019;-79
2022/01/24 19:14:19;;;;;;;;;;;21.70;82.20;;;;;;5071581;28;19951;-79
2022/01/24 19:16:47;;;;;;;;;;;21.70;82.30;;;;;;5073586;28;19908;-80
2022/01/24 19:20:00;;;;;;;;;;;21.70;82.10;;;;;;5072627;28;20420;-79
2022/01/24 19:24:48;;;;;;;;;;;21.70;81.80;;;;;;5072472;28;20013;-79
2022/01/24 19:27:14;;;;;;;;;;;21.70;81.80;;;;;;5086357;28;20331;-80
2022/01/24 19:29:41;;;;;;;;;;;21.70;82.00;;;;;;5072555;28;19908;-80
2022/01/24 21:32:33;;;;;;;;;;;22.40;79.00;;;;;;5068097;28;19950;-74
2022/01/24 21:35:12;;;;;;;;;;;22.40;79.40;;;;;;5069648;28;20013;-74
2022/01/24 21:37:38;;;;;;;;;;;22.40;79.90;;;;;;5067870;28;19908;-74
2022/01/24 21:40:05;;;;;;;;;;;22.40;80.10;;;;;;5070152;28;21105;-74
2022/01/24 21:42:32;;;;;;;;;;;22.40;80.30;;;;;;5067939;28;20342;-74
2022/01/24 21:44:59;;;;;;;;;;;22.40;80.50;;;;;;5071269;28;20263;-75
2022/01/24 21:47:25;;;;;;;;;;;22.40;80.50;;;;;;5060095;28;19909;-75
2022/01/24 21:49:52;;;;;;;;;;;22.50;80.50;;;;;;5071935;28;19908;-75
2022/01/24 21:52:18;;;;;;;;;;;22.50;80.60;;;;;;5079297;28;19962;-73
2022/01/24 21:54:45;;;;;;;;;;;22.50;80.20;;;;;;5059640;28;19908;-74
2022/01/24 21:57:12;;;;;;;;;;;22.50;80.00;;;;;;5072378;28;19908;-75
2022/01/24 21:59:39;;;;;;;;;;;22.50;79.90;;;;;;5064450;28;19909;-74
2022/01/24 22:02:06;;;;;;;;;;;22.60;79.80;;;;;;5064646;28;19942;-74
2022/01/24 22:04:32;;;;;;;;;;;22.60;79.80;;;;;;5073618;28;20390;-75
2022/01/24 22:07:04;;;;;;;;;;;22.60;79.30;;;;;;5078579;28;19912;-74
2022/01/24 22:09:31;;;;;;;;;;;22.60;79.40;;;;;;5084172;28;19904;-74
2022/01/24 22:11:57;;;;;;;;;;;22.60;78.90;;;;;;5073062;28;20023;-73
2022/01/24 22:14:24;;;;;;;;;;;22.60;78.70;;;;;;5074300;28;19909;-74
2022/01/24 22:16:50;;;;;;;;;;;22.70;78.60;;;;;;5067413;28;20027;-74
2022/01/24 22:19:17;;;;;;;;;;;22.60;78.60;;;;;;5064803;28;19916;-74
2022/01/24 22:21:43;;;;;;;;;;;22.70;78.80;;;;;;5085686;28;19912;-74
2022/01/24 22:24:10;;;;;;;;;;;22.60;79.00;;;;;;5067454;28;20400;-74
2022/01/24 22:26:38;;;;;;;;;;;22.60;79.20;;;;;;5074030;28;19914;-74
2022/01/24 22:29:07;;;;;;;;;;;22.70;79.30;;;;;;5066184;28;19917;-74
2022/01/24 22:50:58;;;;;;;;;;;22.80;78.20;;;;;;5079611;28;20007;-72
2022/01/24 22:53:25;;;;;;;;;;;22.80;76.50;;;;;;5065779;28;19951;-72
2022/01/24 22:55:51;;;;;;;;;;;23.00;76.80;;;;;;5051221;28;19908;-72
2022/01/24 22:58:19;;;;;;;;;;;23.10;75.70;;;;;;5071421;28;19908;-72
2022/01/24 23:00:46;;;;;;;;;;;23.30;76.70;;;;;;5048404;28;20036;-72
2022/01/24 23:03:13;;;;;;;;;;;23.50;76.60;;;;;;5070640;28;19977;-72
2022/01/24 23:05:40;;;;;;;;;;;23.50;75.80;;;;;;5064059;28;19908;-73
2022/01/24 23:08:07;;;;;;;;;;;23.50;75.80;;;;;;5069178;28;20037;-73
2022/01/24 23:10:36;;;;;;;;;;;23.50;74.20;;;;;;5042055;28;19912;-72
2022/01/24 23:13:06;;;;;;;;;;;23.50;73.50;;;;;;5053298;28;19919;-73
2022/01/24 23:20:47;;;;;;;;;;;23.50;73.00;;;;;;5055391;28;19911;-72
2022/01/24 23:23:14;;;;;;;;;;;23.50;72.80;;;;;;5069879;28;19999;-72
2022/01/24 23:25:44;;;;;;;;;;;23.50;73.10;;;;;;5070725;28;20018;-72
2022/01/24 23:28:11;;;;;;;;;;;23.50;73.30;;;;;;5076402;28;19969;-72
2022/01/24 23:30:59;;;;;;;;;;;23.50;73.70;;;;;;5032978;28;19917;-72
2022/01/24 23:33:34;;;;;;;;;;;23.50;74.70;;;;;;5049290;28;19920;-73
2022/01/24 23:41:18;;;;;;;;;;;23.50;74.40;;;;;;5071062;28;20320;-72
2022/01/24 23:43:50;;;;;;;;;;;23.50;72.50;;;;;;5066535;28;20323;-72
2022/01/24 23:46:19;;;;;;;;;;;23.50;72.90;;;;;;5070888;28;19904;-72
2022/01/24 23:48:46;;;;;;;;;;;23.60;72.50;;;;;;5054543;28;19904;-72
2022/01/24 23:51:13;;;;;;;;;;;23.60;71.80;;;;;;5051588;28;19952;-72
2022/01/24 23:53:39;;;;;;;;;;;23.60;73.20;;;;;;5070940;28;19955;-72
2022/01/24 23:56:09;;;;;;;;;;;23.60;73.10;;;;;;5070944;28;19904;-72
